메인 페이지
METAR-TAF:

METAR-TAF

공항 :

Nawabshah, 파키스탄

위도: 26-15N, 경도: 068-22E, 고도: 37m

현재 날씨관측

예보는 42분 전, 08:00시(UTC)에 발표되었습니다.
남동10kt
온도 40°C
습도 38%
기압 997 hPa
연무

METAR: OPNH 240800Z 13510KT 5000M HZ NSC 40/23 Q0997 NOSIG METAR

시각: 13:42 (08:42 UTC)

예보

예보는 4 시간 42분 전, 04:00시(UTC)에 발표되었습니다.
예보 대상 시간: 24일 06시부터 25일 12시까지 (UTC)
8kt, 순간 최대 풍속 18kt
시정: 5000m
연무
전환 중
24일 15시부터 25일 17시까지 (UTC)
10kt, 순간 최대 풍속 20kt
시정: 4000m
연무
일시적
25일 00시부터 25일 04시까지 (UTC)
5kt, 순간 최대 풍속 15kt
시정: 3000m
연무
시부터 (UTC)
8kt, 순간 최대 풍속 18kt
시정: 5000m
고도 2000ft 상공 구름 보통
연무

TAF: OPNH 240400Z 2406/2512 18008G18KT 5000 HZ NSC BECMG 2415/2517 18010G20KT 4000 HZ NSC TEMPO 2500/2504 18005G15KT 3000 HZ NSC FM 250600 18008G18KT 5000 HZ SCT020

4,000개 이상의 공항 관측 자료 및 예보 (METAR 및 TAF 보고).

지도상에서 검색 가능한 기상관측소가 노란 점과 빨간 점으로 표시되어 있습니다.

기상관측소 명을 보려면 표시 위로 마우스를 이동하세요.

날씨 관측과 예보를 보려면 클릭하세요.

지도 변경 : 확대하려면 엑스 표시가 있는 녹색 버튼, 축소하려면 빼기 표시가 있는 녹색 버튼, 다음 페이지의 지도를 보려면 녹색 화살표를 클릭하세요.


METAR-TAF: